Warning: A non-numeric value encountered in /home/webcambr/www/wetterbrienz/weather28/wsFunctions.php on line 563

Live Webcam Brienzersee more information Live Webcam Brienzersee


Besuchen Sie unsere anderen Wetter Stationen:

Template documentation
and downloads

And another site



METAR-Meldungen aus der Umgebung

   
EBBR - Brussels International Airport, Belgium
Entfernung von der Station bis: W 14 km
Aktualisierung: 19-07-2018 16:50
Klar  
Klar  
   Wind: variiert 7.4 km/h
Wind: variiert 7.4 km/h
Temperatur: 26°C
Taupunkt: 10°C
Luftfeuchte: 37%
Luftdruck: 1018 hPa
Sichtbarkeit: More than 10 km
Bewölkung: Klar ft
EBBR 191450Z VRB04KT CAVOK 26/10 Q1018 NOSIG
EBBE - Beauvechain (Bevekom), Belgium
Entfernung von der Station bis: SSO 17 km
Aktualisierung: 19-07-2018 16:55
Teilweise bewölkt  
Teilweise bewölkt  
   Wind: NNW 13 km/h
Wind: NNW 13 km/h
Temperatur: 27°C
Taupunkt: 9°C
Luftfeuchte: 32%
Luftdruck: 1017 hPa
Bewölkt: Partly Cloudy
Sichtbarkeit: More than 10 km
Bewölkung: leicht bewölkt 6000 ft,
Teilweise bewölkt 27000 ft
EBBE 191455Z 34007KT 9999 FEW060 SCT270 27/09 Q1017 BLU BLU
EBDT - Schaffen, Belgium
Entfernung von der Station bis: ONO 29 km
Aktualisierung: 19-07-2018 16:55
leicht bewölkt  
leicht bewölkt  
   Wind: NW 7.4 km/h
Wind: NW 7.4 km/h
Temperatur: 26°C
Taupunkt: 9°C
Luftfeuchte: 34%
Luftdruck: 1017 hPa
Bewölkt: Few Clouds
Sichtbarkeit: More than 10 km
Bewölkung: leicht bewölkt 17000 ft
EBDT 191455Z AUTO 32004KT 9999 FEW170/// 26/09 Q1017 BLU
EBAW - Antwerp/Deurne, Belgium
Entfernung von der Station bis: NNW 38 km
Aktualisierung: 19-07-2018 16:50
Klar  
Klar  
   Wind: NNW 14.8 km/h
Wind: NNW 14.8 km/h
Temperatur: 26°C
Taupunkt: 12°C
Luftfeuchte: 42%
Luftdruck: 1018 hPa
Sichtbarkeit: More than 10 km
Bewölkung: Klar ft
EBAW 191450Z 34008KT 310V020 CAVOK 26/12 Q1018 NOSIG
EBCI - Charleroi/Gosselies, Belgium
Entfernung von der Station bis: SSW 51 km
Aktualisierung: 19-07-2018 16:50
Klar  
Klar  
   Wind: WNW 11.1 km/h
Wind: WNW 11.1 km/h
Temperatur: 27°C
Taupunkt: 8°C
Luftfeuchte: 30%
Luftdruck: 1018 hPa
Sichtbarkeit: More than 10 km
Bewölkung: Klar ft
EBCI 191450Z 30006KT CAVOK 27/08 Q1018 NOSIG
EBLG - Bierset/Liege, Belgium
Entfernung von der Station bis: OSO 60 km
Aktualisierung: 19-07-2018 16:50
Klar  
Klar  
   Wind: NNW 13 km/h
Wind: NNW 13 km/h
Temperatur: 27°C
Taupunkt: 10°C
Luftfeuchte: 34%
Luftdruck: 1017 hPa
Sichtbarkeit: More than 10 km
Bewölkung: Klar ft
EBLG 191450Z 33007KT 270V010 CAVOK 27/10 Q1017 NOSIG

Script entwickelt von  Saratoga-weather.org Angepasst für das Template von  Weerstation Leuven